sensor_id;sensor_type;location;lat;lon;timestamp;pressure;altitude;pressure_sealevel;temperature;humidity
39141;BME280;24875;48.436;10.298;2023-04-03T00:00:26;96893.53;;;4.59;86.86
39141;BME280;24875;48.436;10.298;2023-04-03T00:02:52;96890.66;;;4.42;85.52
39141;BME280;24875;48.436;10.298;2023-04-03T00:05:19;96886.84;;;4.46;86.26
39141;BME280;24875;48.436;10.298;2023-04-03T00:07:46;96883.06;;;4.39;84.98
39141;BME280;24875;48.436;10.298;2023-04-03T00:10:14;96882.56;;;4.56;85.18
39141;BME280;24875;48.436;10.298;2023-04-03T00:12:40;96882.59;;;4.45;85.49
39141;BME280;24875;48.436;10.298;2023-04-03T00:15:07;96888.25;;;4.50;83.80
39141;BME280;24875;48.436;10.298;2023-04-03T00:17:34;96892.22;;;4.44;84.41
39141;BME280;24875;48.436;10.298;2023-04-03T00:20:01;96889.63;;;4.22;84.36
39141;BME280;24875;48.436;10.298;2023-04-03T00:22:27;96891.63;;;4.30;83.14
39141;BME280;24875;48.436;10.298;2023-04-03T00:24:54;96890.22;;;4.37;82.96
39141;BME280;24875;48.436;10.298;2023-04-03T00:27:22;96887.66;;;4.57;83.52
39141;BME280;24875;48.436;10.298;2023-04-03T00:29:48;96887.00;;;4.44;82.24
39141;BME280;24875;48.436;10.298;2023-04-03T00:32:15;96880.16;;;4.53;82.72
39141;BME280;24875;48.436;10.298;2023-04-03T00:34:41;96887.44;;;4.49;82.69
39141;BME280;24875;48.436;10.298;2023-04-03T00:37:08;96886.41;;;4.41;83.03
39141;BME280;24875;48.436;10.298;2023-04-03T00:39:34;96889.34;;;4.47;83.25
39141;BME280;24875;48.436;10.298;2023-04-03T12:51:34;96921.94;;;7.65;63.44
39141;BME280;24875;48.436;10.298;2023-04-03T12:54:03;96935.16;;;7.08;67.37
39141;BME280;24875;48.436;10.298;2023-04-03T12:56:32;96933.50;;;6.88;67.25
39141;BME280;24875;48.436;10.298;2023-04-03T12:59:14;96930.31;;;6.66;67.75
39141;BME280;24875;48.436;10.298;2023-04-03T13:01:40;96927.16;;;6.53;68.94
39141;BME280;24875;48.436;10.298;2023-04-03T13:04:10;96924.53;;;6.63;68.78
39141;BME280;24875;48.436;10.298;2023-04-03T13:06:40;96929.09;;;6.61;67.64
39141;BME280;24875;48.436;10.298;2023-04-03T13:09:19;96926.75;;;6.67;69.09
39141;BME280;24875;48.436;10.298;2023-04-03T13:11:48;96925.78;;;7.06;69.07
39141;BME280;24875;48.436;10.298;2023-04-03T13:14:17;96918.31;;;7.11;66.34
39141;BME280;24875;48.436;10.298;2023-04-03T13:16:53;96914.03;;;7.28;67.96
39141;BME280;24875;48.436;10.298;2023-04-03T13:19:19;96915.94;;;7.26;62.31
39141;BME280;24875;48.436;10.298;2023-04-03T13:21:57;96917.97;;;7.51;63.12
39141;BME280;24875;48.436;10.298;2023-04-03T13:24:25;96911.78;;;7.52;61.53
39141;BME280;24875;48.436;10.298;2023-04-03T13:26:53;96915.66;;;7.85;64.36
39141;BME280;24875;48.436;10.298;2023-04-03T13:29:23;96903.53;;;8.20;58.97
39141;BME280;24875;48.436;10.298;2023-04-03T13:31:53;96903.59;;;8.28;58.38
39141;BME280;24875;48.436;10.298;2023-04-03T13:34:22;96908.56;;;8.31;60.06
39141;BME280;24875;48.436;10.298;2023-04-03T13:36:58;96907.81;;;8.82;58.75
39141;BME280;24875;48.436;10.298;2023-04-03T13:39:29;96907.56;;;8.58;57.34
39141;BME280;24875;48.436;10.298;2023-04-03T13:41:58;96899.22;;;8.46;56.72
39141;BME280;24875;48.436;10.298;2023-04-03T13:44:31;96899.47;;;8.25;58.31
39141;BME280;24875;48.436;10.298;2023-04-03T13:46:59;96891.75;;;8.41;55.50
39141;BME280;24875;48.436;10.298;2023-04-03T13:49:32;96892.50;;;8.34;58.51
39141;BME280;24875;48.436;10.298;2023-04-03T13:52:02;96897.44;;;8.81;58.20
39141;BME280;24875;48.436;10.298;2023-04-03T13:54:31;96890.72;;;9.21;55.01
39141;BME280;24875;48.436;10.298;2023-04-03T13:57:00;96883.31;;;8.99;54.40
39141;BME280;24875;48.436;10.298;2023-04-03T13:59:30;96891.94;;;8.74;61.18
39141;BME280;24875;48.436;10.298;2023-04-03T14:02:12;96892.31;;;8.97;57.82
39141;BME280;24875;48.436;10.298;2023-04-03T14:04:55;96892.09;;;8.55;58.57
39141;BME280;24875;48.436;10.298;2023-04-03T14:07:27;96894.94;;;8.18;57.85
39141;BME280;24875;48.436;10.298;2023-04-03T14:09:54;96889.22;;;7.95;58.25
39141;BME280;24875;48.436;10.298;2023-04-03T14:12:25;96893.03;;;8.37;62.04
39141;BME280;24875;48.436;10.298;2023-04-03T14:14:52;96888.31;;;8.41;58.96
39141;BME280;24875;48.436;10.298;2023-04-03T14:17:21;96896.59;;;8.19;56.95
39141;BME280;24875;48.436;10.298;2023-04-03T14:19:50;96877.81;;;7.87;55.27
39141;BME280;24875;48.436;10.298;2023-04-03T14:22:19;96886.75;;;7.94;57.05
39141;BME280;24875;48.436;10.298;2023-04-03T14:24:49;96883.09;;;7.78;56.87
39141;BME280;24875;48.436;10.298;2023-04-03T14:27:19;96887.03;;;7.64;55.90
39141;BME280;24875;48.436;10.298;2023-04-03T14:29:47;96880.81;;;7.65;60.14
39141;BME280;24875;48.436;10.298;2023-04-03T14:32:15;96889.56;;;7.83;57.17
39141;BME280;24875;48.436;10.298;2023-04-03T14:34:43;96874.97;;;7.71;59.03
39141;BME280;24875;48.436;10.298;2023-04-03T14:37:11;96880.53;;;7.95;59.40
39141;BME280;24875;48.436;10.298;2023-04-03T14:39:38;96871.13;;;8.02;56.48
39141;BME280;24875;48.436;10.298;2023-04-03T14:42:09;96878.91;;;8.21;56.02
39141;BME280;24875;48.436;10.298;2023-04-03T14:44:37;96877.41;;;8.09;57.11
39141;BME280;24875;48.436;10.298;2023-04-03T14:47:04;96873.34;;;8.50;53.81
39141;BME280;24875;48.436;10.298;2023-04-03T14:49:30;96870.41;;;8.53;50.20
39141;BME280;24875;48.436;10.298;2023-04-03T14:51:57;96866.84;;;8.28;54.28
39141;BME280;24875;48.436;10.298;2023-04-03T14:54:24;96872.56;;;8.75;52.44
39141;BME280;24875;48.436;10.298;2023-04-03T14:56:53;96859.88;;;8.88;53.64
39141;BME280;24875;48.436;10.298;2023-04-03T14:59:22;96862.53;;;9.89;52.90
39141;BME280;24875;48.436;10.298;2023-04-03T15:01:49;96854.19;;;10.35;49.46
39141;BME280;24875;48.436;10.298;2023-04-03T15:04:16;96855.25;;;11.05;48.17
39141;BME280;24875;48.436;10.298;2023-04-03T15:06:43;96852.25;;;11.64;46.82
39141;BME280;24875;48.436;10.298;2023-04-03T15:09:18;96845.66;;;11.60;44.95
39141;BME280;24875;48.436;10.298;2023-04-03T15:11:45;96851.03;;;11.90;45.08
39141;BME280;24875;48.436;10.298;2023-04-03T15:14:12;96843.22;;;12.05;44.00
39141;BME280;24875;48.436;10.298;2023-04-03T15:16:40;96844.59;;;11.93;45.15
39141;BME280;24875;48.436;10.298;2023-04-03T15:19:07;96854.63;;;12.35;42.84
39141;BME280;24875;48.436;10.298;2023-04-03T15:21:33;96842.03;;;11.61;43.04
39141;BME280;24875;48.436;10.298;2023-04-03T15:23:59;96851.97;;;11.97;45.18
39141;BME280;24875;48.436;10.298;2023-04-03T15:26:26;96868.38;;;11.77;44.92
39141;BME280;24875;48.436;10.298;2023-04-03T15:28:53;96860.63;;;13.12;40.81
39141;BME280;24875;48.436;10.298;2023-04-03T15:31:19;96859.81;;;11.75;44.79
39141;BME280;24875;48.436;10.298;2023-04-03T15:33:47;96865.44;;;11.40;43.82
39141;BME280;24875;48.436;10.298;2023-04-03T15:36:13;96863.84;;;11.07;42.53
39141;BME280;24875;48.436;10.298;2023-04-03T15:38:40;96864.06;;;10.41;43.73
39141;BME280;24875;48.436;10.298;2023-04-03T15:41:06;96868.94;;;10.20;46.13
39141;BME280;24875;48.436;10.298;2023-04-03T15:43:33;96867.41;;;9.76;45.69
39141;BME280;24875;48.436;10.298;2023-04-03T15:46:00;96879.88;;;8.99;46.68
39141;BME280;24875;48.436;10.298;2023-04-03T15:48:27;96876.75;;;9.03;46.82
39141;BME280;24875;48.436;10.298;2023-04-03T15:50:56;96869.41;;;8.37;48.68
39141;BME280;24875;48.436;10.298;2023-04-03T15:53:22;96876.88;;;8.05;51.08
39141;BME280;24875;48.436;10.298;2023-04-03T15:55:49;96882.38;;;8.12;48.99
39141;BME280;24875;48.436;10.298;2023-04-03T15:58:15;96879.91;;;7.84;50.45
39141;BME280;24875;48.436;10.298;2023-04-03T16:00:42;96872.97;;;9.73;47.47
39141;BME280;24875;48.436;10.298;2023-04-03T16:03:11;96859.63;;;10.49;44.62
39141;BME280;24875;48.436;10.298;2023-04-03T16:05:38;96855.88;;;12.17;41.27
39141;BME280;24875;48.436;10.298;2023-04-03T16:08:07;96846.91;;;13.45;38.66
39141;BME280;24875;48.436;10.298;2023-04-03T16:10:34;96849.66;;;14.53;35.56
39141;BME280;24875;48.436;10.298;2023-04-03T16:13:01;96859.16;;;15.18;33.90
